CheckWX is a tool to help pilots better visualize weather data.  It is not intended as a substitute for an official pre-flight weather briefing.

20:33:30 UTC

KTUP TAF
Tupelo Regional Airport
Tupelo, Mississippi, USA
KTUP 221726Z 2218/2318 28005KT P6SM SCT250 FM230000 00000KT P6SM BKN250 FM231200 09005KT P6SM SKC

Mar-22@
18:00 UTC

Mar-22 @ 18:00 UTC

Mar-23@
00:00 UTC

Mar-23 @ 00:00 UTC

KTUP 221726Z 2218/2318 28005KT P6SM SCT250
Wind
  • 280° at 5 KTS
Cloud Levels
  • Scattered at 25,000' AGL

Mar-23@
00:00 UTC

Mar-23 @ 00:00 UTC

Mar-23@
12:00 UTC

Mar-23 @ 12:00 UTC

FM230000 00000KT P6SM BKN250

From

From Standard forecast or significant change

Cloud Levels
  • Broken at 25,000' AGL

Mar-23@
12:00 UTC

Mar-23 @ 12:00 UTC

Mar-23@
18:00 UTC

Mar-23 @ 18:00 UTC

FM231200 09005KT P6SM SKC

From

From Standard forecast or significant change

Wind
  • 090° at 5 KTS
Cloud Levels
  • Clear skies